Time;durP1;ratioP1;P1;durP2;ratioP2;P2;SDS_P1;SDS_P2;PMS_P1;PMS_P2;Temp;Humidity;BMP_temperature;BMP_pressure;BME280_temperature;BME280_humidity;BME280_pressure;Samples;Min_cycle;Max_cycle;Signal;HPM_P1;HPM_P2
2021/06/01 00:02:43;;;;;;;3.73;3.53;;;15.30;57.30;;;;;;10448929;28;20221;-76
2021/06/01 00:07:45;;;;;;;3.37;3.17;;;15.30;57.30;;;;;;10423725;28;20292;-76
2021/06/01 00:12:48;;;;;;;3.00;2.90;;;15.20;57.90;;;;;;10448349;28;20267;-76
2021/06/01 00:17:49;;;;;;;3.47;3.27;;;15.20;57.40;;;;;;10419894;28;20244;-76
2021/06/01 00:22:51;;;;;;;4.20;3.90;;;15.10;57.80;;;;;;10419283;28;20786;-76
2021/06/01 00:27:54;;;;;;;3.60;3.40;;;15.10;58.10;;;;;;10423640;28;20197;-76
2021/06/01 00:32:55;;;;;;;3.50;3.30;;;15.00;58.60;;;;;;10418694;28;20217;-76
2021/06/01 00:37:57;;;;;;;3.70;3.50;;;15.00;58.60;;;;;;10421815;28;20293;-76
2021/06/01 00:43:00;;;;;;;3.60;3.40;;;14.90;58.60;;;;;;10420914;28;20293;-76
2021/06/01 00:48:02;;;;;;;3.30;3.10;;;14.80;58.70;;;;;;10420517;28;20193;-76
2021/06/01 00:53:06;;;;;;;4.27;3.97;;;14.80;59.20;;;;;;10419088;28;20217;-76
2021/06/01 00:58:09;;;;;;;4.17;3.80;;;14.80;59.80;;;;;;10423033;28;20206;-76
2021/06/01 01:03:11;;;;;;;4.10;3.80;;;14.80;58.30;;;;;;10417392;28;20653;-76
2021/06/01 01:08:43;;;;;;;3.50;3.30;;;14.70;58.30;;;;;;10399054;28;20190;-76
2021/06/01 01:13:50;;;;;;;3.83;3.63;;;14.60;58.20;;;;;;10417007;28;20244;-76
2021/06/01 01:18:57;;;;;;;3.47;3.27;;;14.50;59.10;;;;;;10416430;28;20276;-76
2021/06/01 01:24:14;;;;;;;3.67;3.47;;;14.30;59.90;;;;;;10400697;28;20243;-76
2021/06/01 01:29:23;;;;;;;3.13;3.00;;;14.20;60.20;;;;;;10416324;28;20238;-76
2021/06/01 01:34:28;;;;;;;3.40;3.20;;;14.10;61.20;;;;;;10418051;28;21190;-76
2021/06/01 01:39:34;;;;;;;3.90;3.70;;;14.10;62.10;;;;;;10420407;28;20222;-76
2021/06/01 01:44:38;;;;;;;3.80;3.60;;;14.10;60.70;;;;;;10419870;28;20209;-76
2021/06/01 01:49:42;;;;;;;3.60;3.40;;;14.10;62.10;;;;;;10421386;28;20228;-76
2021/06/01 01:54:43;;;;;;;3.40;3.20;;;14.00;61.90;;;;;;10418743;28;20221;-76
2021/06/01 01:59:45;;;;;;;3.40;3.20;;;14.00;61.40;;;;;;10384833;28;20277;-76
2021/06/01 02:04:49;;;;;;;3.60;3.40;;;14.00;60.60;;;;;;10419887;28;20638;-76
2021/06/01 02:09:50;;;;;;;3.60;3.40;;;14.00;60.00;;;;;;10409517;28;20732;-76
2021/06/01 02:14:54;;;;;;;3.60;3.40;;;13.80;61.10;;;;;;10424931;28;20304;-76
2021/06/01 02:19:57;;;;;;;3.60;3.40;;;13.70;62.00;;;;;;10423155;28;20216;-76
2021/06/01 02:25:05;;;;;;;3.67;3.47;;;13.60;62.60;;;;;;10409495;28;20189;-76
2021/06/01 02:30:09;;;;;;;3.33;3.03;;;13.60;62.70;;;;;;10422430;28;20301;-76
2021/06/01 02:35:14;;;;;;;3.30;3.10;;;13.60;63.60;;;;;;10425211;28;20263;-76
2021/06/01 02:40:18;;;;;;;3.20;3.00;;;13.60;64.00;;;;;;10448868;28;20299;-76
2021/06/01 02:45:22;;;;;;;3.60;3.30;;;13.60;63.30;;;;;;10440059;28;20201;-76
2021/06/01 02:50:28;;;;;;;4.03;3.80;;;13.60;63.40;;;;;;10451088;28;20247;-75
2021/06/01 02:55:30;;;;;;;6.00;3.43;;;13.50;64.30;;;;;;10457861;28;20223;-76
2021/06/01 03:00:31;;;;;;;3.40;3.20;;;13.60;61.70;;;;;;10450831;28;20248;-76
2021/06/01 03:05:34;;;;;;;2.97;2.87;;;13.50;63.80;;;;;;10448324;28;20276;-76
2021/06/01 03:10:36;;;;;;;2.70;2.50;;;13.40;64.10;;;;;;10457165;28;20237;-76
2021/06/01 03:15:38;;;;;;;3.30;3.00;;;13.40;62.50;;;;;;10449141;28;20236;-78
2021/06/01 03:20:41;;;;;;;3.67;3.37;;;13.40;64.00;;;;;;10464214;28;20262;-78
2021/06/01 03:25:43;;;;;;;3.43;3.23;;;13.30;64.30;;;;;;10460136;28;20734;-78
2021/06/01 03:30:45;;;;;;;3.50;3.30;;;13.20;64.30;;;;;;10435557;28;20655;-78
2021/06/01 03:35:49;;;;;;;3.13;3.03;;;13.20;64.00;;;;;;10443373;28;20221;-78
2021/06/01 03:40:50;;;;;;;6.23;3.77;;;13.20;65.10;;;;;;10460990;28;20220;-78
2021/06/01 03:45:52;;;;;;;3.40;3.20;;;13.20;64.70;;;;;;10443134;28;20207;-78
2021/06/01 03:50:55;;;;;;;3.77;3.57;;;13.10;65.30;;;;;;10438527;28;20766;-78
2021/06/01 03:55:57;;;;;;;3.40;3.10;;;13.10;65.40;;;;;;10435905;28;20632;-78
2021/06/01 04:00:58;;;;;;;3.73;3.53;;;13.10;63.80;;;;;;10436500;28;20225;-78
2021/06/01 04:06:01;;;;;;;3.43;3.23;;;13.10;65.90;;;;;;10416971;28;20201;-78
2021/06/01 04:11:03;;;;;;;4.37;4.03;;;13.10;65.20;;;;;;10451022;28;20335;-79
2021/06/01 04:16:05;;;;;;;3.80;3.60;;;13.10;64.70;;;;;;10436585;28;20218;-79
2021/06/01 04:21:08;;;;;;;3.80;3.60;;;13.10;65.30;;;;;;10417888;28;20247;-79
2021/06/01 04:26:10;;;;;;;4.53;4.23;;;13.10;66.20;;;;;;10420554;28;20198;-79
2021/06/01 04:31:12;;;;;;;3.73;3.53;;;13.10;66.20;;;;;;10432642;28;20311;-79
2021/06/01 04:36:15;;;;;;;4.20;3.93;;;13.00;67.30;;;;;;10410161;28;20224;-79
2021/06/01 04:41:17;;;;;;;2.90;2.70;;;13.10;65.70;;;;;;10441575;28;20221;-79
2021/06/01 04:46:18;;;;;;;3.70;3.40;;;13.10;67.70;;;;;;10432143;28;20729;-79
2021/06/01 04:51:21;;;;;;;3.83;3.63;;;13.10;67.60;;;;;;10446460;28;20404;-79
2021/06/01 04:56:24;;;;;;;4.00;3.70;;;13.20;66.40;;;;;;10443040;28;20693;-79
2021/06/01 05:01:26;;;;;;;4.20;3.90;;;13.20;68.00;;;;;;10456996;28;20229;-79
2021/06/01 05:06:31;;;;;;;3.80;3.60;;;13.30;68.00;;;;;;10440438;28;20198;-80
2021/06/01 05:11:33;;;;;;;4.23;3.80;;;13.30;69.10;;;;;;10414120;28;20241;-80
2021/06/01 05:16:35;;;;;;;4.63;4.30;;;13.40;68.40;;;;;;10444483;28;20248;-79
2021/06/01 05:21:38;;;;;;;4.70;4.30;;;13.40;68.10;;;;;;10458835;28;20252;-79
2021/06/01 05:26:39;;;;;;;4.73;4.43;;;13.50;68.50;;;;;;10439207;28;20201;-80
2021/06/01 05:31:46;;;;;;;5.53;5.13;;;13.50;69.10;;;;;;10437379;28;20747;-79
2021/06/01 05:36:49;;;;;;;5.37;4.97;;;13.60;69.40;;;;;;10452923;28;20299;-79
2021/06/01 05:41:51;;;;;;;5.53;5.07;;;13.70;70.00;;;;;;10437940;28;20324;-79
2021/06/01 05:46:52;;;;;;;7.20;5.80;;;13.80;70.20;;;;;;10452014;28;20247;-79
2021/06/01 05:51:57;;;;;;;6.77;6.17;;;13.90;70.30;;;;;;10418128;28;20365;-80
2021/06/01 05:56:58;;;;;;;6.87;6.27;;;14.00;71.10;;;;;;10441407;28;20224;-80
2021/06/01 06:02:00;;;;;;;7.30;6.70;;;14.10;70.60;;;;;;10455516;28;20239;-79
2021/06/01 06:07:04;;;;;;;7.30;5.60;;;14.20;70.70;;;;;;10449645;28;20193;-79
2021/06/01 06:12:06;;;;;;;7.63;7.00;;;14.30;71.10;;;;;;10452713;28;20240;-80
2021/06/01 06:17:11;;;;;;;7.20;6.60;;;14.50;71.10;;;;;;10435492;28;20723;-79
2021/06/01 06:22:14;;;;;;;6.93;6.33;;;14.60;70.10;;;;;;10431492;28;20216;-80
2021/06/01 06:27:16;;;;;;;8.60;7.83;;;14.80;71.10;;;;;;10437081;28;20606;-80
2021/06/01 06:32:18;;;;;;;8.87;6.50;;;14.90;71.00;;;;;;10437202;28;20662;-80
2021/06/01 06:37:21;;;;;;;8.47;7.67;;;15.10;71.00;;;;;;10452148;28;20221;-80
2021/06/01 06:42:22;;;;;;;8.17;7.30;;;15.50;70.70;;;;;;10454720;28;20228;-79
2021/06/01 06:47:28;;;;;;;10.07;9.00;;;15.90;69.00;;;;;;10447733;28;20197;-79
2021/06/01 06:52:31;;;;;;;6.80;6.13;;;16.40;66.90;;;;;;10439940;28;20266;-80
2021/06/01 06:57:33;;;;;;;6.00;5.50;;;16.80;64.80;;;;;;10461428;28;20322;-78
2021/06/01 07:02:36;;;;;;;6.73;5.50;;;17.30;57.70;;;;;;10441095;28;20279;-78
2021/06/01 07:07:40;;;;;;;4.37;3.97;;;17.70;60.80;;;;;;10436543;28;20200;-78
2021/06/01 07:12:43;;;;;;;4.30;4.00;;;18.10;57.70;;;;;;10460233;28;20236;-78
2021/06/01 07:17:46;;;;;;;3.97;3.67;;;18.50;55.60;;;;;;10440486;28;20213;-78
2021/06/01 07:22:49;;;;;;;4.10;3.80;;;18.90;53.40;;;;;;10440591;28;20873;-78
2021/06/01 07:27:51;;;;;;;4.03;3.67;;;19.40;54.20;;;;;;10459243;28;20276;-78
2021/06/01 07:32:52;;;;;;;3.50;3.20;;;19.90;52.00;;;;;;10434359;28;20249;-78
2021/06/01 07:37:55;;;;;;;3.77;3.50;;;20.40;52.50;;;;;;10422380;28;20719;-78
2021/06/01 07:42:59;;;;;;;3.67;3.47;;;20.90;49.80;;;;;;10423423;28;20229;-78
2021/06/01 07:48:00;;;;;;;4.43;3.80;;;21.40;50.40;;;;;;10462313;28;20203;-78
2021/06/01 07:53:03;;;;;;;4.90;3.53;;;21.90;48.10;;;;;;10456791;28;20244;-78
2021/06/01 07:58:05;;;;;;;3.43;3.23;;;22.40;47.40;;;;;;10454926;28;20312;-78
2021/06/01 08:03:07;;;;;;;3.60;3.40;;;22.80;47.90;;;;;;10437315;28;20291;-78
2021/06/01 08:08:10;;;;;;;3.23;2.97;;;23.30;46.20;;;;;;10452523;28;20197;-78
2021/06/01 08:13:11;;;;;;;3.93;3.63;;;23.60;44.80;;;;;;10438558;28;20235;-78
2021/06/01 08:18:13;;;;;;;3.20;3.10;;;24.00;45.40;;;;;;10455827;28;20731;-78
2021/06/01 08:23:16;;;;;;;3.70;3.50;;;24.60;44.20;;;;;;10416180;28;20225;-78
2021/06/01 08:28:18;;;;;;;3.40;2.93;;;24.70;42.10;;;;;;10454749;28;20197;-78
2021/06/01 08:33:20;;;;;;;3.13;2.93;;;25.20;42.90;;;;;;10457262;28;20197;-78
2021/06/01 08:38:23;;;;;;;3.37;3.17;;;25.40;41.20;;;;;;10436172;28;20252;-78
2021/06/01 08:43:26;;;;;;;3.90;3.60;;;25.60;40.50;;;;;;10450183;28;20637;-78
2021/06/01 08:48:29;;;;;;;3.40;3.20;;;25.90;41.40;;;;;;10438132;28;20193;-78
2021/06/01 08:53:33;;;;;;;3.40;3.20;;;26.30;40.30;;;;;;10443730;28;20216;-78
2021/06/01 08:58:35;;;;;;;3.63;3.37;;;26.70;38.10;;;;;;10437521;28;20629;-78
2021/06/01 09:03:41;;;;;;;3.40;3.20;;;26.70;36.50;;;;;;10454139;28;20233;-78
2021/06/01 09:08:55;;;;;;;7.07;3.20;;;26.80;37.20;;;;;;10453424;28;20229;-78
2021/06/01 09:14:21;;;;;;;3.80;3.50;;;26.80;37.50;;;;;;10443776;28;20684;-78
2021/06/01 09:24:59;;;;;;;3.30;3.10;;;26.90;36.10;;;;;;10454836;28;20197;-78
2021/06/01 09:30:01;;;;;;;3.10;2.90;;;27.30;36.20;;;;;;10453394;28;20599;-78
2021/06/01 09:35:03;;;;;;;3.30;3.10;;;27.70;34.70;;;;;;10447530;28;20303;-78
2021/06/01 09:40:26;;;;;;;2.70;2.60;;;28.50;34.60;;;;;;10436435;28;20239;-78
2021/06/01 09:45:27;;;;;;;3.03;2.93;;;29.70;34.10;;;;;;10453671;28;20208;-79
2021/06/01 09:50:36;;;;;;;3.47;3.27;;;30.60;31.50;;;;;;10451295;28;20277;-79
2021/06/01 09:55:47;;;;;;;2.97;2.77;;;31.60;29.80;;;;;;10441070;28;20229;-78
2021/06/01 10:00:48;;;;;;;3.17;3.03;;;32.90;30.50;;;;;;10438534;28;20228;-79
2021/06/01 10:05:51;;;;;;;3.77;3.47;;;34.40;29.50;;;;;;10419809;28;20228;-78
2021/06/01 10:10:57;;;;;;;3.20;3.10;;;35.60;27.70;;;;;;10456825;28;20278;-79
2021/06/01 10:16:02;;;;;;;3.33;3.23;;;36.50;27.20;;;;;;10433905;28;20216;-78
2021/06/01 10:21:06;;;;;;;3.50;3.30;;;36.90;26.40;;;;;;10437372;28;20251;-78
2021/06/01 10:26:11;;;;;;;3.60;3.27;;;34.70;26.60;;;;;;10454840;28;20229;-78
2021/06/01 10:31:15;;;;;;;2.90;2.80;;;31.90;29.50;;;;;;10444290;28;20271;-78
2021/06/01 10:42:28;;;;;;;3.03;2.83;;;29.90;30.80;;;;;;10421492;28;20308;-78
2021/06/01 10:52:33;;;;;;;3.40;3.20;;;25.70;34.90;;;;;;10461663;28;20217;-78
2021/06/01 10:57:57;;;;;;;3.50;3.30;;;24.90;37.10;;;;;;10462038;28;20233;-78
2021/06/01 11:03:03;;;;;;;3.77;3.47;;;24.40;36.90;;;;;;10443756;28;20249;-78
2021/06/01 11:08:12;;;;;;;3.60;3.40;;;23.90;36.70;;;;;;10459622;28;20220;-78
2021/06/01 11:13:36;;;;;;;3.00;2.80;;;23.50;36.40;;;;;;10445516;28;20229;-78
2021/06/01 11:18:43;;;;;;;4.43;3.10;;;23.20;37.90;;;;;;10442154;28;20742;-78
2021/06/01 11:35:14;;;;;;;3.20;3.07;;;22.60;39.10;;;;;;10421372;28;20213;-78
2021/06/01 11:40:24;;;;;;;3.90;3.70;;;22.60;35.60;;;;;;10430199;28;20299;-78
2021/06/01 11:45:41;;;;;;;3.60;3.37;;;22.40;37.70;;;;;;10438814;28;20535;-78
2021/06/01 11:50:58;;;;;;;3.50;3.30;;;22.30;38.60;;;;;;10423446;28;20231;-78
2021/06/01 11:56:03;;;;;;;4.07;3.77;;;22.30;39.70;;;;;;10449384;28;20211;-78
2021/06/01 12:11:56;;;;;;;3.90;3.37;;;22.40;39.30;;;;;;10443899;28;20688;-78
2021/06/01 12:17:15;;;;;;;3.70;3.40;;;22.50;38.20;;;;;;10451692;28;20264;-78
2021/06/01 12:22:19;;;;;;;3.10;3.00;;;22.50;39.00;;;;;;10433167;28;20212;-78
2021/06/01 12:27:26;;;;;;;3.47;3.27;;;22.40;39.80;;;;;;10442886;28;20276;-78
2021/06/01 12:32:31;;;;;;;3.23;3.03;;;22.40;38.50;;;;;;10432098;28;20214;-78
2021/06/01 13:12:01;;;;;;;3.43;3.23;;;22.40;40.60;;;;;;10435279;28;20243;-78
2021/06/01 13:20:32;;;;;;;4.00;3.70;;;22.50;39.90;;;;;;10408748;28;20277;-78
2021/06/01 13:31:06;;;;;;;5.40;3.60;;;22.60;38.80;;;;;;10406878;28;20220;-78
2021/06/01 13:36:44;;;;;;;3.70;3.40;;;22.60;38.70;;;;;;10440495;28;20213;-79
2021/06/01 13:47:19;;;;;;;3.50;3.20;;;22.60;38.60;;;;;;10417810;28;20230;-78
2021/06/01 13:52:55;;;;;;;3.20;3.10;;;22.70;38.60;;;;;;10400796;28;20228;-78
2021/06/01 14:30:06;;;;;;;3.10;2.90;;;22.60;41.80;;;;;;10443751;28;20221;-78
2021/06/01 15:07:53;;;;;;;3.60;3.30;;;22.60;40.80;;;;;;10426741;28;20201;-79
2021/06/01 15:24:26;;;;;;;3.43;3.23;;;22.60;40.50;;;;;;10421994;28;20275;-78
2021/06/01 15:50:47;;;;;;;2.80;2.57;;;22.70;41.20;;;;;;10432256;28;20294;-79
2021/06/01 16:12:14;;;;;;;3.00;2.80;;;22.40;41.70;;;;;;10417090;28;20379;-77
2021/06/01 16:22:50;;;;;;;2.40;2.20;;;22.50;41.60;;;;;;10415898;28;20221;-79
2021/06/01 16:33:28;;;;;;;2.83;2.60;;;22.50;39.10;;;;;;10448365;28;20212;-79
2021/06/01 16:44:08;;;;;;;2.87;2.67;;;22.70;38.60;;;;;;10446713;28;20559;-78
2021/06/01 17:05:20;;;;;;;2.67;2.50;;;22.60;39.60;;;;;;10450099;28;20189;-78
2021/06/01 17:15:42;;;;;;;4.80;2.70;;;22.60;38.90;;;;;;10438441;28;20257;-78
2021/06/01 17:31:52;;;;;;;2.77;2.57;;;22.40;42.20;;;;;;10447923;28;20220;-79
2021/06/01 17:36:56;;;;;;;3.17;2.77;;;22.40;40.30;;;;;;10443877;28;20208;-78
2021/06/01 17:42:00;;;;;;;2.97;2.77;;;22.40;40.00;;;;;;10437981;28;20263;-79
2021/06/01 17:47:03;;;;;;;2.70;2.60;;;22.40;40.20;;;;;;10438300;28;20201;-79
2021/06/01 17:52:07;;;;;;;2.70;2.47;;;22.30;42.20;;;;;;10446083;28;20821;-79
2021/06/01 17:57:09;;;;;;;2.70;2.50;;;22.30;41.50;;;;;;10452506;28;20247;-79
2021/06/01 18:02:13;;;;;;;4.60;2.70;;;22.10;42.70;;;;;;10435328;28;20257;-79
2021/06/01 18:07:20;;;;;;;2.60;2.37;;;22.10;41.90;;;;;;10418297;28;20213;-79
2021/06/01 19:01:45;;;;;;;3.43;3.13;;;21.10;46.60;;;;;;10457286;28;20964;-80
2021/06/01 19:28:52;;;;;;;3.77;3.47;;;20.40;48.50;;;;;;10441640;28;20197;-81
2021/06/01 19:49:58;;;;;;;5.20;3.57;;;19.90;48.60;;;;;;10456014;28;20232;-80
2021/06/01 19:55:03;;;;;;;5.40;4.37;;;19.80;49.30;;;;;;10457425;28;20204;-80
2021/06/01 20:00:10;;;;;;;7.20;4.33;;;19.70;49.80;;;;;;10456729;28;20217;-80
2021/06/01 20:05:18;;;;;;;3.97;3.67;;;19.60;50.80;;;;;;10458558;28;20221;-80
2021/06/01 20:10:19;;;;;;;5.53;3.90;;;19.50;50.90;;;;;;10464845;28;20225;-79
2021/06/01 20:15:30;;;;;;;5.83;3.80;;;19.40;49.80;;;;;;10451144;28;20243;-80
2021/06/01 20:20:54;;;;;;;3.60;3.40;;;19.40;50.80;;;;;;10453641;28;20304;-79
2021/06/01 20:25:57;;;;;;;4.10;3.83;;;19.30;50.00;;;;;;10454081;28;20673;-81
2021/06/01 20:31:05;;;;;;;5.83;3.50;;;19.20;50.50;;;;;;10423885;28;20229;-80
2021/06/01 20:36:07;;;;;;;6.67;6.17;;;19.20;50.20;;;;;;10457917;28;20217;-80
2021/06/01 20:41:09;;;;;;;4.77;4.47;;;19.10;51.10;;;;;;10438718;28;20728;-79
2021/06/01 20:46:12;;;;;;;4.50;4.20;;;19.00;50.90;;;;;;10463569;28;20732;-80
2021/06/01 20:51:14;;;;;;;5.10;4.43;;;19.00;51.00;;;;;;10452974;28;20249;-81
2021/06/01 20:56:15;;;;;;;4.70;4.30;;;18.90;50.80;;;;;;10445382;28;20221;-81
2021/06/01 21:01:19;;;;;;;5.73;4.17;;;18.90;51.00;;;;;;10448775;28;20593;-80
2021/06/01 21:06:21;;;;;;;4.37;4.00;;;18.80;51.80;;;;;;10446277;28;20201;-81
2021/06/01 21:11:24;;;;;;;6.53;4.07;;;18.80;51.30;;;;;;10468634;28;20236;-79
2021/06/01 21:16:28;;;;;;;5.03;4.00;;;18.70;51.30;;;;;;10451682;28;20216;-81
2021/06/01 21:21:30;;;;;;;4.27;3.97;;;18.60;51.60;;;;;;10457361;28;20304;-81
2021/06/01 21:26:31;;;;;;;4.23;3.93;;;18.60;52.20;;;;;;10446052;28;20732;-80
2021/06/01 21:31:46;;;;;;;3.50;3.30;;;18.50;52.30;;;;;;10456588;28;20297;-81
2021/06/01 21:36:51;;;;;;;4.17;3.87;;;18.40;52.30;;;;;;10454813;28;20255;-79
2021/06/01 21:41:53;;;;;;;3.93;3.63;;;18.40;52.20;;;;;;10452072;28;20217;-79
2021/06/01 21:47:08;;;;;;;4.17;3.40;;;18.40;52.10;;;;;;10477740;28;20197;-80
2021/06/01 21:52:10;;;;;;;4.60;4.20;;;18.30;53.00;;;;;;10441957;28;20308;-80
2021/06/01 21:57:11;;;;;;;4.20;3.80;;;18.30;52.70;;;;;;10452776;28;20271;-81
2021/06/01 22:02:14;;;;;;;4.17;3.87;;;18.20;52.80;;;;;;10460102;28;20212;-78
2021/06/01 22:07:17;;;;;;;3.97;3.67;;;18.10;52.70;;;;;;10438484;28;20201;-81
2021/06/01 22:12:19;;;;;;;4.20;3.90;;;18.10;53.30;;;;;;10507731;22;20232;-80
2021/06/01 22:17:24;;;;;;;3.47;3.27;;;18.10;53.00;;;;;;10506514;28;20589;-81
2021/06/01 22:22:26;;;;;;;4.10;3.80;;;18.00;53.20;;;;;;10476717;28;20289;-80
2021/06/01 22:27:28;;;;;;;4.17;3.87;;;17.90;53.30;;;;;;10486627;28;20205;-80
2021/06/01 22:32:32;;;;;;;3.73;3.53;;;17.80;53.40;;;;;;10494907;28;20217;-78
2021/06/01 22:37:33;;;;;;;3.70;3.40;;;17.80;53.80;;;;;;10487612;28;20278;-79
2021/06/01 22:42:35;;;;;;;4.50;4.17;;;17.70;53.80;;;;;;10501378;28;20220;-79
2021/06/01 22:47:40;;;;;;;3.70;3.50;;;17.70;54.00;;;;;;10491551;28;20709;-80
2021/06/01 22:52:42;;;;;;;4.00;3.70;;;17.70;54.20;;;;;;10483756;28;20248;-80
2021/06/01 22:57:51;;;;;;;4.20;3.80;;;17.60;54.30;;;;;;10499825;28;20228;-79
2021/06/01 23:02:56;;;;;;;3.60;3.30;;;17.60;54.90;;;;;;10472142;28;20251;-78
2021/06/01 23:07:59;;;;;;;3.87;3.57;;;17.50;54.90;;;;;;10474959;28;20189;-81
2021/06/01 23:13:04;;;;;;;4.90;3.37;;;17.50;54.90;;;;;;10469452;28;20692;-80
2021/06/01 23:18:08;;;;;;;3.43;3.20;;;17.40;55.30;;;;;;10470926;28;20761;-80
2021/06/01 23:23:09;;;;;;;3.80;3.40;;;17.40;54.80;;;;;;10491849;28;20220;-80
2021/06/01 23:28:11;;;;;;;3.10;3.00;;;17.30;55.00;;;;;;10497775;28;20697;-81
2021/06/01 23:33:14;;;;;;;3.70;3.50;;;17.20;55.20;;;;;;10467300;28;20312;-82
2021/06/01 23:38:27;;;;;;;3.47;3.27;;;17.20;56.50;;;;;;10494467;28;20242;-80
2021/06/01 23:43:28;;;;;;;3.17;2.97;;;17.10;56.00;;;;;;10499083;28;20235;-79
2021/06/01 23:53:51;;;;;;;3.00;2.80;;;17.00;56.70;;;;;;10501580;28;20224;-78
2021/06/01 23:58:53;;;;;;;3.37;3.17;;;17.00;56.10;;;;;;10497584;28;20219;-79
